sensor_id;sensor_type;location;lat;lon;timestamp;P1;durP1;ratioP1;P2;durP2;ratioP2
67092;SDS011;54011;50.772;7.730;2023-05-10T00:01:35;5.15;;;1.70;;
67092;SDS011;54011;50.772;7.730;2023-05-10T00:04:01;2.90;;;1.33;;
67092;SDS011;54011;50.772;7.730;2023-05-10T00:06:26;3.03;;;1.48;;
67092;SDS011;54011;50.772;7.730;2023-05-10T00:08:52;3.20;;;1.90;;
67092;SDS011;54011;50.772;7.730;2023-05-10T00:11:18;3.53;;;1.85;;
67092;SDS011;54011;50.772;7.730;2023-05-10T00:13:43;3.63;;;2.00;;
67092;SDS011;54011;50.772;7.730;2023-05-10T00:16:09;3.58;;;1.88;;
67092;SDS011;54011;50.772;7.730;2023-05-10T00:18:34;4.65;;;1.58;;
67092;SDS011;54011;50.772;7.730;2023-05-10T00:21:00;2.67;;;1.30;;
67092;SDS011;54011;50.772;7.730;2023-05-10T00:23:25;2.97;;;1.60;;
67092;SDS011;54011;50.772;7.730;2023-05-10T00:25:51;2.58;;;1.10;;
67092;SDS011;54011;50.772;7.730;2023-05-10T00:28:16;4.43;;;1.48;;
67092;SDS011;54011;50.772;7.730;2023-05-10T00:30:41;7.43;;;1.60;;
67092;SDS011;54011;50.772;7.730;2023-05-10T00:33:08;2.50;;;1.20;;
67092;SDS011;54011;50.772;7.730;2023-05-10T00:35:33;3.30;;;1.40;;
67092;SDS011;54011;50.772;7.730;2023-05-10T00:37:59;2.50;;;1.30;;
67092;SDS011;54011;50.772;7.730;2023-05-10T00:40:24;5.07;;;1.50;;
67092;SDS011;54011;50.772;7.730;2023-05-10T00:42:54;2.40;;;1.10;;
67092;SDS011;54011;50.772;7.730;2023-05-10T00:45:20;2.35;;;1.25;;
67092;SDS011;54011;50.772;7.730;2023-05-10T00:47:48;4.60;;;1.58;;
67092;SDS011;54011;50.772;7.730;2023-05-10T00:50:14;3.03;;;1.75;;
67092;SDS011;54011;50.772;7.730;2023-05-10T00:52:40;3.55;;;1.95;;
67092;SDS011;54011;50.772;7.730;2023-05-10T00:55:07;3.42;;;1.95;;
67092;SDS011;54011;50.772;7.730;2023-05-10T00:57:34;4.45;;;2.65;;
67092;SDS011;54011;50.772;7.730;2023-05-10T01:00:00;4.70;;;2.90;;
67092;SDS011;54011;50.772;7.730;2023-05-10T01:02:27;5.40;;;3.15;;
67092;SDS011;54011;50.772;7.730;2023-05-10T01:04:52;5.45;;;3.50;;
67092;SDS011;54011;50.772;7.730;2023-05-10T01:07:19;6.60;;;3.63;;
67092;SDS011;54011;50.772;7.730;2023-05-10T01:09:44;5.88;;;3.63;;
67092;SDS011;54011;50.772;7.730;2023-05-10T01:12:10;5.97;;;4.18;;
67092;SDS011;54011;50.772;7.730;2023-05-10T01:14:36;8.82;;;4.65;;
67092;SDS011;54011;50.772;7.730;2023-05-10T01:17:02;10.63;;;4.65;;
67092;SDS011;54011;50.772;7.730;2023-05-10T01:19:29;6.93;;;4.18;;
67092;SDS011;54011;50.772;7.730;2023-05-10T01:24:42;8.55;;;4.25;;
67092;SDS011;54011;50.772;7.730;2023-05-10T01:27:30;4.15;;;2.47;;
67092;SDS011;54011;50.772;7.730;2023-05-10T01:30:24;10.38;;;5.00;;
67092;SDS011;54011;50.772;7.730;2023-05-10T01:38:28;8.02;;;4.93;;
67092;SDS011;54011;50.772;7.730;2023-05-10T01:41:22;7.40;;;4.45;;
67092;SDS011;54011;50.772;7.730;2023-05-10T01:44:09;9.57;;;5.13;;
67092;SDS011;54011;50.772;7.730;2023-05-10T01:47:07;7.10;;;4.35;;
67092;SDS011;54011;50.772;7.730;2023-05-10T01:49:40;9.00;;;5.80;;
67092;SDS011;54011;50.772;7.730;2023-05-10T01:52:10;9.25;;;5.15;;
67092;SDS011;54011;50.772;7.730;2023-05-10T01:54:43;9.90;;;6.30;;
67092;SDS011;54011;50.772;7.730;2023-05-10T01:57:20;10.23;;;6.20;;
67092;SDS011;54011;50.772;7.730;2023-05-10T01:59:51;10.95;;;6.20;;
67092;SDS011;54011;50.772;7.730;2023-05-10T02:02:21;14.27;;;6.28;;
67092;SDS011;54011;50.772;7.730;2023-05-10T02:04:49;12.88;;;6.35;;
67092;SDS011;54011;50.772;7.730;2023-05-10T02:07:16;10.98;;;6.97;;
67092;SDS011;54011;50.772;7.730;2023-05-10T02:09:44;13.55;;;7.50;;
67092;SDS011;54011;50.772;7.730;2023-05-10T02:12:13;13.23;;;7.90;;
67092;SDS011;54011;50.772;7.730;2023-05-10T02:14:41;13.02;;;8.02;;
67092;SDS011;54011;50.772;7.730;2023-05-10T02:17:08;16.67;;;8.65;;
67092;SDS011;54011;50.772;7.730;2023-05-10T02:19:36;15.32;;;8.20;;
67092;SDS011;54011;50.772;7.730;2023-05-10T02:22:03;12.27;;;7.82;;
67092;SDS011;54011;50.772;7.730;2023-05-10T02:24:29;14.20;;;9.23;;
67092;SDS011;54011;50.772;7.730;2023-05-10T02:26:55;14.13;;;7.95;;
67092;SDS011;54011;50.772;7.730;2023-05-10T02:29:23;11.68;;;7.28;;
67092;SDS011;54011;50.772;7.730;2023-05-10T02:31:54;14.45;;;8.02;;
67092;SDS011;54011;50.772;7.730;2023-05-10T02:34:25;11.52;;;6.82;;
67092;SDS011;54011;50.772;7.730;2023-05-10T02:36:52;14.32;;;8.18;;
67092;SDS011;54011;50.772;7.730;2023-05-10T02:39:19;18.02;;;8.10;;
67092;SDS011;54011;50.772;7.730;2023-05-10T02:41:46;13.57;;;7.70;;
67092;SDS011;54011;50.772;7.730;2023-05-10T02:44:14;12.18;;;7.80;;
67092;SDS011;54011;50.772;7.730;2023-05-10T02:46:41;17.65;;;7.90;;
67092;SDS011;54011;50.772;7.730;2023-05-10T02:49:06;13.75;;;7.38;;
67092;SDS011;54011;50.772;7.730;2023-05-10T02:51:32;13.57;;;7.00;;
67092;SDS011;54011;50.772;7.730;2023-05-10T02:54:11;12.30;;;7.22;;
67092;SDS011;54011;50.772;7.730;2023-05-10T02:56:42;9.90;;;5.75;;
67092;SDS011;54011;50.772;7.730;2023-05-10T02:59:11;10.43;;;6.00;;
67092;SDS011;54011;50.772;7.730;2023-05-10T03:01:37;23.02;;;6.25;;
67092;SDS011;54011;50.772;7.730;2023-05-10T03:04:03;10.65;;;5.80;;
67092;SDS011;54011;50.772;7.730;2023-05-10T03:06:32;10.20;;;5.68;;
67092;SDS011;54011;50.772;7.730;2023-05-10T03:08:57;11.32;;;5.55;;
67092;SDS011;54011;50.772;7.730;2023-05-10T03:11:28;8.30;;;5.10;;
67092;SDS011;54011;50.772;7.730;2023-05-10T03:17:00;10.85;;;5.63;;
67092;SDS011;54011;50.772;7.730;2023-05-10T03:22:53;13.95;;;5.55;;
67092;SDS011;54011;50.772;7.730;2023-05-10T03:25:15;10.32;;;5.35;;
67092;SDS011;54011;50.772;7.730;2023-05-10T03:27:44;6.85;;;3.70;;
67092;SDS011;54011;50.772;7.730;2023-05-10T03:30:12;9.73;;;5.47;;
67092;SDS011;54011;50.772;7.730;2023-05-10T03:32:39;9.65;;;5.80;;
67092;SDS011;54011;50.772;7.730;2023-05-10T03:35:08;7.28;;;4.07;;
67092;SDS011;54011;50.772;7.730;2023-05-10T03:37:37;12.43;;;5.78;;
67092;SDS011;54011;50.772;7.730;2023-05-10T03:40:03;11.20;;;5.85;;
67092;SDS011;54011;50.772;7.730;2023-05-10T03:42:32;12.32;;;6.30;;
67092;SDS011;54011;50.772;7.730;2023-05-10T03:44:58;9.23;;;5.45;;
67092;SDS011;54011;50.772;7.730;2023-05-10T03:47:24;9.25;;;5.75;;
67092;SDS011;54011;50.772;7.730;2023-05-10T03:49:50;13.05;;;5.72;;
67092;SDS011;54011;50.772;7.730;2023-05-10T03:52:17;7.82;;;4.45;;
67092;SDS011;54011;50.772;7.730;2023-05-10T03:54:44;8.43;;;4.80;;
67092;SDS011;54011;50.772;7.730;2023-05-10T03:57:12;7.43;;;4.55;;
67092;SDS011;54011;50.772;7.730;2023-05-10T03:59:39;8.68;;;5.07;;
67092;SDS011;54011;50.772;7.730;2023-05-10T04:02:07;9.07;;;4.85;;
67092;SDS011;54011;50.772;7.730;2023-05-10T04:04:35;7.22;;;4.68;;
67092;SDS011;54011;50.772;7.730;2023-05-10T04:07:01;14.05;;;4.25;;
67092;SDS011;54011;50.772;7.730;2023-05-10T04:09:26;11.05;;;4.85;;
67092;SDS011;54011;50.772;7.730;2023-05-10T04:14:23;6.93;;;4.30;;
67092;SDS011;54011;50.772;7.730;2023-05-10T04:16:48;8.20;;;4.22;;
67092;SDS011;54011;50.772;7.730;2023-05-10T04:19:14;7.75;;;4.55;;
67092;SDS011;54011;50.772;7.730;2023-05-10T04:21:40;9.27;;;4.10;;
67092;SDS011;54011;50.772;7.730;2023-05-10T04:24:07;5.65;;;3.55;;
67092;SDS011;54011;50.772;7.730;2023-05-10T04:26:33;5.28;;;3.35;;
67092;SDS011;54011;50.772;7.730;2023-05-10T04:28:59;5.72;;;3.30;;
67092;SDS011;54011;50.772;7.730;2023-05-10T04:31:24;7.80;;;3.70;;
67092;SDS011;54011;50.772;7.730;2023-05-10T04:33:50;6.68;;;3.80;;
67092;SDS011;54011;50.772;7.730;2023-05-10T04:36:15;6.25;;;3.67;;
67092;SDS011;54011;50.772;7.730;2023-05-10T04:38:42;6.82;;;4.03;;
67092;SDS011;54011;50.772;7.730;2023-05-10T04:41:09;7.63;;;4.10;;
67092;SDS011;54011;50.772;7.730;2023-05-10T04:43:36;8.30;;;4.05;;
67092;SDS011;54011;50.772;7.730;2023-05-10T04:46:03;5.88;;;3.95;;
67092;SDS011;54011;50.772;7.730;2023-05-10T04:48:29;6.95;;;4.20;;
67092;SDS011;54011;50.772;7.730;2023-05-10T04:50:55;5.43;;;2.85;;
67092;SDS011;54011;50.772;7.730;2023-05-10T04:53:20;7.38;;;3.97;;
67092;SDS011;54011;50.772;7.730;2023-05-10T04:55:46;7.25;;;3.92;;
67092;SDS011;54011;50.772;7.730;2023-05-10T04:58:13;6.68;;;3.50;;
67092;SDS011;54011;50.772;7.730;2023-05-10T05:00:38;6.60;;;3.47;;
67092;SDS011;54011;50.772;7.730;2023-05-10T05:03:04;5.90;;;3.58;;
67092;SDS011;54011;50.772;7.730;2023-05-10T05:05:30;7.88;;;3.55;;
67092;SDS011;54011;50.772;7.730;2023-05-10T05:07:56;6.40;;;3.80;;
67092;SDS011;54011;50.772;7.730;2023-05-10T05:10:21;11.80;;;4.50;;
67092;SDS011;54011;50.772;7.730;2023-05-10T05:12:47;7.60;;;4.50;;
67092;SDS011;54011;50.772;7.730;2023-05-10T05:15:12;8.60;;;4.97;;
67092;SDS011;54011;50.772;7.730;2023-05-10T05:17:38;9.73;;;4.60;;
67092;SDS011;54011;50.772;7.730;2023-05-10T05:20:04;9.35;;;5.40;;
67092;SDS011;54011;50.772;7.730;2023-05-10T05:22:30;10.35;;;4.65;;
67092;SDS011;54011;50.772;7.730;2023-05-10T05:24:59;9.02;;;5.60;;
67092;SDS011;54011;50.772;7.730;2023-05-10T05:27:24;8.93;;;5.28;;
67092;SDS011;54011;50.772;7.730;2023-05-10T05:29:55;9.32;;;5.43;;
67092;SDS011;54011;50.772;7.730;2023-05-10T05:32:21;11.60;;;6.65;;
67092;SDS011;54011;50.772;7.730;2023-05-10T05:34:47;11.70;;;6.30;;
67092;SDS011;54011;50.772;7.730;2023-05-10T05:37:17;12.07;;;6.75;;
67092;SDS011;54011;50.772;7.730;2023-05-10T05:39:43;13.50;;;6.18;;
67092;SDS011;54011;50.772;7.730;2023-05-10T05:42:10;9.82;;;5.82;;
67092;SDS011;54011;50.772;7.730;2023-05-10T05:44:36;17.20;;;6.30;;
67092;SDS011;54011;50.772;7.730;2023-05-10T05:47:02;13.75;;;6.82;;
67092;SDS011;54011;50.772;7.730;2023-05-10T05:49:27;14.05;;;7.00;;
67092;SDS011;54011;50.772;7.730;2023-05-10T05:51:54;15.93;;;7.30;;
67092;SDS011;54011;50.772;7.730;2023-05-10T05:54:19;13.10;;;7.43;;
67092;SDS011;54011;50.772;7.730;2023-05-10T05:56:45;12.82;;;6.72;;
67092;SDS011;54011;50.772;7.730;2023-05-10T05:59:11;12.43;;;7.13;;
67092;SDS011;54011;50.772;7.730;2023-05-10T06:01:38;14.75;;;7.63;;
67092;SDS011;54011;50.772;7.730;2023-05-10T06:04:04;14.85;;;7.40;;
67092;SDS011;54011;50.772;7.730;2023-05-10T06:06:29;14.95;;;7.95;;
67092;SDS011;54011;50.772;7.730;2023-05-10T06:08:56;14.77;;;7.93;;
67092;SDS011;54011;50.772;7.730;2023-05-10T06:11:21;15.30;;;7.97;;
67092;SDS011;54011;50.772;7.730;2023-05-10T06:13:47;16.23;;;8.55;;
67092;SDS011;54011;50.772;7.730;2023-05-10T06:16:12;15.07;;;8.27;;
67092;SDS011;54011;50.772;7.730;2023-05-10T06:18:39;14.43;;;8.60;;
67092;SDS011;54011;50.772;7.730;2023-05-10T06:21:05;12.55;;;8.25;;
67092;SDS011;54011;50.772;7.730;2023-05-10T06:23:33;16.15;;;8.70;;
67092;SDS011;54011;50.772;7.730;2023-05-10T06:25:59;14.48;;;8.05;;
67092;SDS011;54011;50.772;7.730;2023-05-10T06:28:25;14.82;;;8.27;;
67092;SDS011;54011;50.772;7.730;2023-05-10T06:30:51;16.55;;;8.32;;
67092;SDS011;54011;50.772;7.730;2023-05-10T06:33:16;14.60;;;8.60;;
67092;SDS011;54011;50.772;7.730;2023-05-10T06:35:42;15.90;;;8.07;;
67092;SDS011;54011;50.772;7.730;2023-05-10T06:38:09;9.98;;;6.85;;
67092;SDS011;54011;50.772;7.730;2023-05-10T06:40:34;10.13;;;6.07;;
67092;SDS011;54011;50.772;7.730;2023-05-10T06:43:01;7.07;;;4.22;;
67092;SDS011;54011;50.772;7.730;2023-05-10T06:45:26;7.85;;;3.67;;
67092;SDS011;54011;50.772;7.730;2023-05-10T06:47:53;7.82;;;4.20;;
67092;SDS011;54011;50.772;7.730;2023-05-10T06:50:18;5.78;;;3.10;;
67092;SDS011;54011;50.772;7.730;2023-05-10T06:52:44;5.90;;;3.55;;
67092;SDS011;54011;50.772;7.730;2023-05-10T06:55:09;5.38;;;3.00;;
67092;SDS011;54011;50.772;7.730;2023-05-10T06:57:36;6.30;;;4.03;;
67092;SDS011;54011;50.772;7.730;2023-05-10T07:00:02;6.07;;;3.80;;
67092;SDS011;54011;50.772;7.730;2023-05-10T07:02:31;8.98;;;5.00;;
67092;SDS011;54011;50.772;7.730;2023-05-10T07:04:58;12.35;;;6.25;;
67092;SDS011;54011;50.772;7.730;2023-05-10T07:07:23;16.90;;;8.60;;
67092;SDS011;54011;50.772;7.730;2023-05-10T07:09:49;12.13;;;6.55;;
67092;SDS011;54011;50.772;7.730;2023-05-10T07:12:16;18.45;;;9.20;;
67092;SDS011;54011;50.772;7.730;2023-05-10T07:14:42;23.83;;;12.55;;
67092;SDS011;54011;50.772;7.730;2023-05-10T07:17:09;24.88;;;13.23;;
67092;SDS011;54011;50.772;7.730;2023-05-10T07:19:34;22.58;;;12.20;;
67092;SDS011;54011;50.772;7.730;2023-05-10T07:22:01;28.08;;;13.80;;
67092;SDS011;54011;50.772;7.730;2023-05-10T07:24:26;32.08;;;13.30;;
67092;SDS011;54011;50.772;7.730;2023-05-10T07:26:53;24.50;;;13.43;;
67092;SDS011;54011;50.772;7.730;2023-05-10T07:29:18;23.52;;;13.23;;
67092;SDS011;54011;50.772;7.730;2023-05-10T07:31:45;27.70;;;13.68;;
67092;SDS011;54011;50.772;7.730;2023-05-10T07:34:10;29.98;;;14.88;;
67092;SDS011;54011;50.772;7.730;2023-05-10T07:36:36;26.48;;;14.23;;
67092;SDS011;54011;50.772;7.730;2023-05-10T07:39:01;28.52;;;14.30;;
67092;SDS011;54011;50.772;7.730;2023-05-10T07:41:27;26.60;;;14.38;;
67092;SDS011;54011;50.772;7.730;2023-05-10T07:43:53;30.67;;;14.43;;
67092;SDS011;54011;50.772;7.730;2023-05-10T07:46:18;25.50;;;12.48;;
67092;SDS011;54011;50.772;7.730;2023-05-10T07:48:45;27.05;;;12.93;;
67092;SDS011;54011;50.772;7.730;2023-05-10T07:51:11;24.10;;;11.73;;
67092;SDS011;54011;50.772;7.730;2023-05-10T07:53:37;19.40;;;10.52;;
67092;SDS011;54011;50.772;7.730;2023-05-10T07:56:26;23.00;;;12.35;;
67092;SDS011;54011;50.772;7.730;2023-05-10T07:59:01;14.25;;;7.70;;
67092;SDS011;54011;50.772;7.730;2023-05-10T08:01:32;17.00;;;10.45;;
67092;SDS011;54011;50.772;7.730;2023-05-10T08:03:59;18.33;;;11.18;;
67092;SDS011;54011;50.772;7.730;2023-05-10T08:06:25;19.42;;;10.52;;
67092;SDS011;54011;50.772;7.730;2023-05-10T08:08:53;19.02;;;10.20;;
67092;SDS011;54011;50.772;7.730;2023-05-10T08:11:20;15.90;;;9.90;;
67092;SDS011;54011;50.772;7.730;2023-05-10T08:13:46;17.23;;;9.05;;
67092;SDS011;54011;50.772;7.730;2023-05-10T08:16:13;15.85;;;9.90;;
67092;SDS011;54011;50.772;7.730;2023-05-10T08:18:38;19.75;;;10.30;;
67092;SDS011;54011;50.772;7.730;2023-05-10T08:21:05;17.77;;;9.63;;
67092;SDS011;54011;50.772;7.730;2023-05-10T08:23:31;15.60;;;9.38;;
67092;SDS011;54011;50.772;7.730;2023-05-10T08:25:57;15.88;;;8.77;;
67092;SDS011;54011;50.772;7.730;2023-05-10T08:28:22;14.25;;;7.82;;
67092;SDS011;54011;50.772;7.730;2023-05-10T08:30:49;17.45;;;8.75;;
67092;SDS011;54011;50.772;7.730;2023-05-10T08:33:15;16.30;;;7.70;;
67092;SDS011;54011;50.772;7.730;2023-05-10T08:35:40;15.80;;;8.45;;
67092;SDS011;54011;50.772;7.730;2023-05-10T08:38:06;19.83;;;8.43;;
67092;SDS011;54011;50.772;7.730;2023-05-10T08:40:31;16.40;;;8.90;;
67092;SDS011;54011;50.772;7.730;2023-05-10T08:43:03;14.60;;;7.80;;
67092;SDS011;54011;50.772;7.730;2023-05-10T08:45:32;16.98;;;7.22;;
67092;SDS011;54011;50.772;7.730;2023-05-10T08:48:01;15.45;;;8.32;;
67092;SDS011;54011;50.772;7.730;2023-05-10T08:50:26;18.40;;;8.15;;
67092;SDS011;54011;50.772;7.730;2023-05-10T08:52:52;13.18;;;7.63;;
67092;SDS011;54011;50.772;7.730;2023-05-10T08:55:23;12.53;;;6.77;;
67092;SDS011;54011;50.772;7.730;2023-05-10T08:57:49;11.10;;;5.20;;
67092;SDS011;54011;50.772;7.730;2023-05-10T09:00:18;13.65;;;5.38;;
67092;SDS011;54011;50.772;7.730;2023-05-10T09:02:44;10.88;;;5.32;;
67092;SDS011;54011;50.772;7.730;2023-05-10T09:05:11;10.05;;;5.20;;
67092;SDS011;54011;50.772;7.730;2023-05-10T09:07:37;8.65;;;4.32;;
67092;SDS011;54011;50.772;7.730;2023-05-10T09:10:03;13.05;;;5.55;;
67092;SDS011;54011;50.772;7.730;2023-05-10T09:12:29;13.40;;;5.15;;
67092;SDS011;54011;50.772;7.730;2023-05-10T09:14:55;8.75;;;5.45;;
67092;SDS011;54011;50.772;7.730;2023-05-10T09:17:23;9.48;;;5.13;;
67092;SDS011;54011;50.772;7.730;2023-05-10T09:19:50;9.40;;;5.22;;
67092;SDS011;54011;50.772;7.730;2023-05-10T09:22:15;7.75;;;4.38;;
67092;SDS011;54011;50.772;7.730;2023-05-10T09:24:42;7.57;;;4.00;;
67092;SDS011;54011;50.772;7.730;2023-05-10T09:27:11;9.52;;;2.95;;
67092;SDS011;54011;50.772;7.730;2023-05-10T09:29:41;5.63;;;2.92;;
67092;SDS011;54011;50.772;7.730;2023-05-10T09:32:07;7.50;;;3.03;;
67092;SDS011;54011;50.772;7.730;2023-05-10T09:34:34;6.45;;;2.97;;
67092;SDS011;54011;50.772;7.730;2023-05-10T09:37:01;5.93;;;3.28;;
67092;SDS011;54011;50.772;7.730;2023-05-10T09:39:32;5.25;;;2.63;;
67092;SDS011;54011;50.772;7.730;2023-05-10T09:42:06;4.60;;;2.35;;
67092;SDS011;54011;50.772;7.730;2023-05-10T09:44:34;6.00;;;2.63;;
67092;SDS011;54011;50.772;7.730;2023-05-10T09:47:01;10.00;;;3.03;;
67092;SDS011;54011;50.772;7.730;2023-05-10T09:49:28;6.88;;;2.78;;
67092;SDS011;54011;50.772;7.730;2023-05-10T09:52:01;6.90;;;2.47;;
67092;SDS011;54011;50.772;7.730;2023-05-10T09:54:30;5.25;;;2.50;;
67092;SDS011;54011;50.772;7.730;2023-05-10T09:56:57;10.20;;;3.90;;
67092;SDS011;54011;50.772;7.730;2023-05-10T09:59:23;6.50;;;2.40;;
67092;SDS011;54011;50.772;7.730;2023-05-10T10:01:51;3.92;;;1.83;;
67092;SDS011;54011;50.772;7.730;2023-05-10T10:04:18;6.70;;;2.45;;
67092;SDS011;54011;50.772;7.730;2023-05-10T10:06:46;6.32;;;2.47;;
67092;SDS011;54011;50.772;7.730;2023-05-10T10:09:22;7.97;;;2.00;;
67092;SDS011;54011;50.772;7.730;2023-05-10T10:11:49;7.18;;;2.30;;
67092;SDS011;54011;50.772;7.730;2023-05-10T10:14:16;3.55;;;1.63;;
67092;SDS011;54011;50.772;7.730;2023-05-10T10:16:46;3.97;;;1.67;;
67092;SDS011;54011;50.772;7.730;2023-05-10T10:19:12;3.53;;;1.20;;
67092;SDS011;54011;50.772;7.730;2023-05-10T10:21:38;4.22;;;1.35;;
67092;SDS011;54011;50.772;7.730;2023-05-10T10:24:03;5.80;;;1.50;;
67092;SDS011;54011;50.772;7.730;2023-05-10T10:26:35;4.15;;;1.42;;
67092;SDS011;54011;50.772;7.730;2023-05-10T10:32:10;9.35;;;1.70;;
67092;SDS011;54011;50.772;7.730;2023-05-10T10:34:45;3.30;;;1.50;;
67092;SDS011;54011;50.772;7.730;2023-05-10T10:37:11;4.53;;;1.70;;
67092;SDS011;54011;50.772;7.730;2023-05-10T10:39:36;4.63;;;1.80;;
67092;SDS011;54011;50.772;7.730;2023-05-10T10:42:02;4.47;;;1.90;;
67092;SDS011;54011;50.772;7.730;2023-05-10T10:49:24;4.18;;;1.60;;
67092;SDS011;54011;50.772;7.730;2023-05-10T10:55:08;1.73;;;0.80;;
67092;SDS011;54011;50.772;7.730;2023-05-10T10:57:48;2.40;;;1.20;;
67092;SDS011;54011;50.772;7.730;2023-05-10T11:02:59;3.65;;;1.45;;
67092;SDS011;54011;50.772;7.730;2023-05-10T11:08:21;3.50;;;1.42;;
67092;SDS011;54011;50.772;7.730;2023-05-10T11:13:43;5.40;;;1.85;;
67092;SDS011;54011;50.772;7.730;2023-05-10T11:16:20;6.15;;;1.65;;
67092;SDS011;54011;50.772;7.730;2023-05-10T11:19:04;2.17;;;0.85;;
67092;SDS011;54011;50.772;7.730;2023-05-10T11:21:36;3.58;;;1.80;;
67092;SDS011;54011;50.772;7.730;2023-05-10T11:24:29;5.00;;;2.08;;
67092;SDS011;54011;50.772;7.730;2023-05-10T11:26:55;4.38;;;1.80;;
67092;SDS011;54011;50.772;7.730;2023-05-10T11:29:21;3.60;;;1.55;;
67092;SDS011;54011;50.772;7.730;2023-05-10T11:31:47;4.75;;;2.17;;
67092;SDS011;54011;50.772;7.730;2023-05-10T11:34:30;3.72;;;2.15;;
67092;SDS011;54011;50.772;7.730;2023-05-10T11:36:59;7.85;;;2.30;;
67092;SDS011;54011;50.772;7.730;2023-05-10T11:39:28;4.28;;;2.20;;
67092;SDS011;54011;50.772;7.730;2023-05-10T11:41:56;6.88;;;1.80;;
67092;SDS011;54011;50.772;7.730;2023-05-10T11:44:22;3.10;;;1.60;;
67092;SDS011;54011;50.772;7.730;2023-05-10T11:46:47;4.65;;;1.90;;
67092;SDS011;54011;50.772;7.730;2023-05-10T11:49:14;3.80;;;1.80;;
67092;SDS011;54011;50.772;7.730;2023-05-10T11:51:39;6.18;;;2.83;;
67092;SDS011;54011;50.772;7.730;2023-05-10T11:54:07;4.20;;;2.40;;
67092;SDS011;54011;50.772;7.730;2023-05-10T11:56:34;5.10;;;2.80;;
67092;SDS011;54011;50.772;7.730;2023-05-10T11:59:00;5.65;;;3.25;;
67092;SDS011;54011;50.772;7.730;2023-05-10T12:01:27;8.18;;;3.60;;
67092;SDS011;54011;50.772;7.730;2023-05-10T12:03:54;6.35;;;3.40;;
67092;SDS011;54011;50.772;7.730;2023-05-10T12:06:25;6.30;;;3.70;;
67092;SDS011;54011;50.772;7.730;2023-05-10T12:08:52;6.65;;;3.38;;
67092;SDS011;54011;50.772;7.730;2023-05-10T12:11:18;7.55;;;3.20;;
67092;SDS011;54011;50.772;7.730;2023-05-10T12:13:46;5.15;;;2.83;;
67092;SDS011;54011;50.772;7.730;2023-05-10T12:16:19;5.70;;;3.25;;
67092;SDS011;54011;50.772;7.730;2023-05-10T12:18:50;5.50;;;3.17;;
67092;SDS011;54011;50.772;7.730;2023-05-10T12:21:16;7.70;;;4.13;;
67092;SDS011;54011;50.772;7.730;2023-05-10T12:23:45;8.38;;;4.40;;
67092;SDS011;54011;50.772;7.730;2023-05-10T12:26:12;13.57;;;4.45;;
67092;SDS011;54011;50.772;7.730;2023-05-10T12:28:38;10.27;;;5.07;;
67092;SDS011;54011;50.772;7.730;2023-05-10T12:31:06;8.13;;;4.40;;
67092;SDS011;54011;50.772;7.730;2023-05-10T12:33:39;10.25;;;5.15;;
67092;SDS011;54011;50.772;7.730;2023-05-10T12:36:11;11.07;;;5.18;;
67092;SDS011;54011;50.772;7.730;2023-05-10T12:38:39;10.70;;;5.05;;
67092;SDS011;54011;50.772;7.730;2023-05-10T12:41:14;12.25;;;5.65;;
67092;SDS011;54011;50.772;7.730;2023-05-10T12:43:40;12.68;;;6.15;;
67092;SDS011;54011;50.772;7.730;2023-05-10T12:46:07;13.60;;;5.95;;
67092;SDS011;54011;50.772;7.730;2023-05-10T12:48:33;8.90;;;5.13;;
67092;SDS011;54011;50.772;7.730;2023-05-10T12:50:59;13.63;;;6.28;;
67092;SDS011;54011;50.772;7.730;2023-05-10T12:53:26;12.75;;;6.22;;
67092;SDS011;54011;50.772;7.730;2023-05-10T12:55:51;13.48;;;6.15;;
67092;SDS011;54011;50.772;7.730;2023-05-10T12:58:17;15.38;;;6.15;;
67092;SDS011;54011;50.772;7.730;2023-05-10T13:00:42;13.35;;;5.90;;
67092;SDS011;54011;50.772;7.730;2023-05-10T13:03:08;18.48;;;6.43;;
67092;SDS011;54011;50.772;7.730;2023-05-10T13:05:35;12.00;;;6.65;;
67092;SDS011;54011;50.772;7.730;2023-05-10T13:08:00;9.23;;;5.60;;
67092;SDS011;54011;50.772;7.730;2023-05-10T13:10:26;11.35;;;5.88;;
67092;SDS011;54011;50.772;7.730;2023-05-10T13:12:51;12.38;;;6.25;;
67092;SDS011;54011;50.772;7.730;2023-05-10T13:15:17;13.60;;;6.70;;
67092;SDS011;54011;50.772;7.730;2023-05-10T13:17:43;12.07;;;6.35;;
67092;SDS011;54011;50.772;7.730;2023-05-10T13:20:08;10.32;;;5.55;;
67092;SDS011;54011;50.772;7.730;2023-05-10T13:22:35;13.98;;;6.03;;
67092;SDS011;54011;50.772;7.730;2023-05-10T13:25:00;10.45;;;5.35;;
67092;SDS011;54011;50.772;7.730;2023-05-10T13:27:27;11.95;;;5.97;;
67092;SDS011;54011;50.772;7.730;2023-05-10T13:29:53;11.30;;;5.57;;
67092;SDS011;54011;50.772;7.730;2023-05-10T13:32:20;12.27;;;5.45;;
67092;SDS011;54011;50.772;7.730;2023-05-10T13:34:46;14.82;;;5.53;;
67092;SDS011;54011;50.772;7.730;2023-05-10T13:37:11;10.32;;;5.65;;
67092;SDS011;54011;50.772;7.730;2023-05-10T13:39:37;10.27;;;6.03;;
67092;SDS011;54011;50.772;7.730;2023-05-10T13:42:02;12.48;;;5.65;;
67092;SDS011;54011;50.772;7.730;2023-05-10T13:44:29;11.07;;;5.50;;
67092;SDS011;54011;50.772;7.730;2023-05-10T13:46:55;9.55;;;5.10;;
67092;SDS011;54011;50.772;7.730;2023-05-10T13:49:21;9.68;;;5.55;;
67092;SDS011;54011;50.772;7.730;2023-05-10T13:51:47;10.90;;;5.40;;
67092;SDS011;54011;50.772;7.730;2023-05-10T13:54:12;9.75;;;5.30;;
67092;SDS011;54011;50.772;7.730;2023-05-10T13:56:38;10.27;;;5.97;;
67092;SDS011;54011;50.772;7.730;2023-05-10T13:59:05;10.18;;;5.10;;
67092;SDS011;54011;50.772;7.730;2023-05-10T14:01:32;10.95;;;5.60;;
67092;SDS011;54011;50.772;7.730;2023-05-10T14:03:58;11.93;;;5.93;;
67092;SDS011;54011;50.772;7.730;2023-05-10T14:06:24;10.70;;;5.95;;
67092;SDS011;54011;50.772;7.730;2023-05-10T14:08:50;10.68;;;5.75;;
67092;SDS011;54011;50.772;7.730;2023-05-10T14:11:15;9.75;;;6.07;;
67092;SDS011;54011;50.772;7.730;2023-05-10T14:13:41;10.35;;;5.55;;
67092;SDS011;54011;50.772;7.730;2023-05-10T14:16:06;13.48;;;5.72;;
67092;SDS011;54011;50.772;7.730;2023-05-10T14:18:32;13.30;;;6.47;;
67092;SDS011;54011;50.772;7.730;2023-05-10T14:20:57;9.23;;;5.25;;
67092;SDS011;54011;50.772;7.730;2023-05-10T14:23:23;10.85;;;5.82;;
67092;SDS011;54011;50.772;7.730;2023-05-10T14:28:19;11.57;;;5.57;;
67092;SDS011;54011;50.772;7.730;2023-05-10T14:30:46;11.40;;;5.63;;
67092;SDS011;54011;50.772;7.730;2023-05-10T14:33:12;10.02;;;5.15;;
67092;SDS011;54011;50.772;7.730;2023-05-10T14:35:37;9.25;;;5.28;;
67092;SDS011;54011;50.772;7.730;2023-05-10T14:38:03;12.40;;;5.97;;
67092;SDS011;54011;50.772;7.730;2023-05-10T14:40:29;11.05;;;5.70;;
67092;SDS011;54011;50.772;7.730;2023-05-10T14:42:55;11.13;;;6.03;;
67092;SDS011;54011;50.772;7.730;2023-05-10T14:45:21;12.38;;;6.75;;
67092;SDS011;54011;50.772;7.730;2023-05-10T14:47:47;14.05;;;6.15;;
67092;SDS011;54011;50.772;7.730;2023-05-10T14:50:13;12.90;;;6.90;;
67092;SDS011;54011;50.772;7.730;2023-05-10T14:52:39;13.77;;;7.55;;
67092;SDS011;54011;50.772;7.730;2023-05-10T14:55:05;18.10;;;8.23;;
67092;SDS011;54011;50.772;7.730;2023-05-10T14:57:30;17.95;;;6.15;;
67092;SDS011;54011;50.772;7.730;2023-05-10T14:59:57;21.80;;;5.75;;
67092;SDS011;54011;50.772;7.730;2023-05-10T15:02:22;8.18;;;4.75;;
67092;SDS011;54011;50.772;7.730;2023-05-10T15:04:48;13.38;;;4.97;;
67092;SDS011;54011;50.772;7.730;2023-05-10T15:07:14;13.38;;;5.75;;
67092;SDS011;54011;50.772;7.730;2023-05-10T15:09:40;13.70;;;5.97;;
67092;SDS011;54011;50.772;7.730;2023-05-10T15:12:06;10.30;;;5.13;;
67092;SDS011;54011;50.772;7.730;2023-05-10T15:14:31;12.13;;;5.63;;
67092;SDS011;54011;50.772;7.730;2023-05-10T15:16:58;8.30;;;4.53;;
67092;SDS011;54011;50.772;7.730;2023-05-10T15:19:24;10.27;;;4.63;;
67092;SDS011;54011;50.772;7.730;2023-05-10T15:21:49;6.50;;;3.80;;